Time;durP1;ratioP1;P1;durP2;ratioP2;P2;SDS_P1;SDS_P2;PMS_P1;PMS_P2;Temp;Humidity;BMP_temperature;BMP_pressure;BME280_temperature;BME280_humidity;BME280_pressure;Samples;Min_cycle;Max_cycle;Signal;HPM_P1;HPM_P2
2021/12/12 00:00:47;;;;;;;39.55;15.38;;;8.30;99.90;;;8.31;90.75;101785.09;5116133;28;20126;-74
2021/12/12 00:03:32;;;;;;;38.08;15.35;;;8.20;99.90;;;8.28;90.63;101761.31;5116053;28;20393;-75
2021/12/12 00:06:07;;;;;;;39.78;16.65;;;8.30;99.90;;;8.35;90.71;101763.22;5115763;28;20093;-69
2021/12/12 00:08:37;;;;;;;39.75;16.17;;;8.20;99.90;;;8.34;90.97;101770.25;5097722;28;20477;-74
2021/12/12 00:11:12;;;;;;;38.63;15.48;;;8.20;99.90;;;8.32;91.33;101760.53;5115531;28;20036;-74
2021/12/12 00:13:47;;;;;;;40.75;16.00;;;8.20;99.90;;;8.31;91.40;101761.38;5115915;28;20447;-75
2021/12/12 00:16:17;;;;;;;32.90;15.05;;;8.20;99.90;;;8.20;91.65;101740.97;5115582;28;20044;-74
2021/12/12 00:18:55;;;;;;;37.47;15.25;;;8.20;99.90;;;8.31;91.54;101756.09;5115947;28;20100;-75
2021/12/12 00:21:27;;;;;;;33.67;14.25;;;8.20;99.90;;;8.14;91.90;101784.75;5115429;28;20130;-77
2021/12/12 00:23:57;;;;;;;31.45;15.30;;;8.20;99.90;;;8.21;91.95;101745.34;5115507;28;20401;-76
2021/12/12 00:26:26;;;;;;;39.40;15.48;;;8.20;99.90;;;8.21;92.27;101747.09;5115622;28;20451;-76
2021/12/12 00:28:55;;;;;;;29.73;14.45;;;8.10;99.90;;;8.18;92.26;101742.69;5115334;28;20046;-76
2021/12/12 00:31:27;;;;;;;34.17;15.35;;;8.10;99.90;;;8.26;92.92;101745.50;5115138;28;20044;-78
2021/12/12 00:33:59;;;;;;;32.83;15.15;;;8.10;99.90;;;8.25;92.63;101740.16;5114648;28;20036;-76
2021/12/12 00:36:29;;;;;;;29.02;13.90;;;8.20;99.90;;;8.20;92.73;101747.97;5115174;28;20031;-76
2021/12/12 00:39:01;;;;;;;;;;;8.10;99.90;;;8.23;92.90;101750.66;5115831;28;20098;-76
2021/12/12 00:41:33;;;;;;;32.60;13.60;;;8.10;99.90;;;8.27;92.79;101739.34;5097126;28;19923;-76
2021/12/12 00:44:03;;;;;;;31.75;14.20;;;8.10;99.90;;;8.20;92.76;101724.25;5115010;28;20088;-76
2021/12/12 00:46:34;;;;;;;32.78;14.63;;;8.10;99.90;;;8.25;93.03;101729.63;5114947;28;20039;-76
2021/12/12 00:49:04;;;;;;;37.15;14.23;;;8.10;99.90;;;8.25;93.02;101730.53;5115241;28;20065;-75
2021/12/12 00:51:36;;;;;;;33.88;13.82;;;8.10;99.90;;;8.20;92.90;101733.06;5096791;28;20043;-76
2021/12/12 00:54:06;;;;;;;29.92;14.93;;;8.10;99.90;;;8.30;93.22;101733.25;5114908;28;20046;-76
2021/12/12 00:56:35;;;;;;;31.75;13.63;;;8.10;99.90;;;8.25;93.43;101727.00;5115265;28;20051;-76
2021/12/12 00:59:05;;;;;;;37.17;14.35;;;8.10;99.90;;;8.21;93.59;101729.56;5114692;28;20122;-76
2021/12/12 01:01:41;;;;;;;36.47;13.38;;;8.10;99.90;;;8.21;93.96;101728.66;5114947;28;20040;-76
2021/12/12 01:04:14;;;;;;;28.55;13.40;;;8.10;99.90;;;8.10;93.74;101704.75;5096687;28;20054;-77
2021/12/12 01:06:44;;;;;;;30.30;13.55;;;8.10;99.90;;;8.18;94.26;101740.03;5096783;28;20054;-76
2021/12/12 01:09:20;;;;;;;39.80;14.38;;;8.00;99.90;;;8.11;94.39;101710.88;5114475;28;20568;-76
2021/12/12 01:11:53;;;;;;;33.88;13.52;;;8.00;99.90;;;8.12;94.47;101710.94;5114415;28;20097;-76
2021/12/12 01:14:25;;;;;;;28.73;13.18;;;8.00;99.90;;;8.06;94.37;101694.13;5114455;28;20042;-75
2021/12/12 01:17:04;;;;;;;31.40;13.30;;;8.00;99.90;;;8.10;95.21;101715.28;5114409;28;20065;-76
2021/12/12 01:19:39;;;;;;;32.65;13.68;;;8.00;99.90;;;8.00;95.13;101722.97;5114272;28;20097;-76
2021/12/12 01:22:16;;;;;;;31.80;13.90;;;8.00;99.90;;;8.01;95.37;101707.19;5096327;28;20489;-75
2021/12/12 01:24:50;;;;;;;25.75;11.90;;;8.00;99.90;;;8.06;95.92;101710.81;5114519;28;20044;-76
2021/12/12 01:27:20;;;;;;;27.02;12.50;;;8.00;99.90;;;8.03;96.03;101710.75;5096212;28;20079;-76
2021/12/12 01:29:50;;;;;;;32.45;12.75;;;7.90;99.90;;;7.92;95.83;101685.94;5114161;28;20086;-76
2021/12/12 01:32:27;;;;;;;28.75;12.70;;;8.00;99.90;;;8.06;96.31;101688.84;5113978;28;20040;-76
2021/12/12 01:34:58;;;;;;;28.98;14.27;;;8.00;99.90;;;8.07;96.35;101709.94;5113995;28;20043;-76
2021/12/12 01:37:38;;;;;;;27.90;12.60;;;8.00;99.90;;;8.10;96.86;101715.28;5114601;28;20040;-76
2021/12/12 01:40:16;;;;;;;32.22;13.63;;;8.00;99.90;;;8.10;96.69;101717.03;5114316;28;20092;-77
2021/12/12 01:42:51;;;;;;;28.23;14.35;;;8.00;99.90;;;8.15;96.77;101715.34;5113982;28;20048;-76
2021/12/12 01:45:26;;;;;;;27.13;12.77;;;8.00;99.90;;;8.12;96.94;101724.13;5113284;28;20054;-77
2021/12/12 01:48:02;;;;;;;28.98;13.50;;;8.00;99.90;;;8.12;97.12;101732.03;5113895;28;20456;-77
2021/12/12 01:50:37;;;;;;;28.27;13.35;;;8.00;99.90;;;8.10;97.13;101723.19;5113954;28;20044;-76
2021/12/12 01:53:10;;;;;;;27.25;13.90;;;8.00;99.90;;;8.12;97.57;101729.38;5113771;28;20093;-76
2021/12/12 01:55:44;;;;;;;27.45;13.55;;;8.00;99.90;;;8.16;97.19;101715.41;5113780;28;20120;-77
2021/12/12 01:58:17;;;;;;;23.70;13.13;;;8.00;99.90;;;8.17;97.08;101709.28;5113700;28;20084;-76
2021/12/12 02:00:49;;;;;;;25.63;12.85;;;8.00;99.90;;;8.08;97.55;101714.38;5113737;28;20086;-77
2021/12/12 02:03:25;;;;;;;27.27;14.18;;;8.00;99.90;;;8.07;97.86;101698.53;5113602;28;20477;-76
2021/12/12 02:05:56;;;;;;;25.45;13.23;;;8.00;99.90;;;7.39;97.74;101593.63;5114159;28;20093;-77
2021/12/12 02:08:28;;;;;;;24.58;13.38;;;8.00;99.90;;;8.09;98.65;101708.22;5113846;28;20097;-77
2021/12/12 02:11:00;;;;;;;22.70;12.85;;;8.00;99.90;;;7.84;98.54;101660.34;5113474;28;20046;-77
2021/12/12 02:13:32;;;;;;;24.63;13.35;;;8.00;99.90;;;8.19;99.02;101720.72;5113436;28;20047;-71
2021/12/12 02:16:02;;;;;;;19.77;13.55;;;8.00;99.90;;;8.22;98.61;101719.91;5111958;28;20101;-71
2021/12/12 02:18:36;;;;;;;;;;;8.10;99.90;;;8.19;98.66;101718.09;5112468;28;20135;-71
2021/12/12 02:21:16;;;;;;;26.83;13.57;;;8.10;99.90;;;8.23;98.62;101713.75;5112802;28;19919;-73
2021/12/12 02:24:19;;;;;;;24.70;15.38;;;8.10;99.90;;;8.19;98.91;101715.47;5112380;28;20075;-71
2021/12/12 02:35:24;;;;;;;35.45;21.50;;;8.10;99.90;;;8.14;99.29;101689.88;5111967;28;20043;-71
2021/12/12 02:37:56;;;;;;;31.67;20.95;;;8.10;99.90;;;7.70;99.30;101607.41;5112446;28;20047;-72
2021/12/12 02:40:30;;;;;;;31.98;19.83;;;8.00;99.90;;;8.27;99.56;101701.56;5112086;28;20093;-71
2021/12/12 02:43:00;;;;;;;35.15;23.38;;;8.10;99.90;;;8.24;99.38;101694.47;5112516;28;20048;-71
2021/12/12 02:45:31;;;;;;;36.33;24.40;;;8.10;99.90;;;8.26;99.62;101710.34;5112288;28;20411;-71
2021/12/12 02:48:04;;;;;;;35.08;22.88;;;8.10;99.90;;;8.33;99.50;101701.66;5112483;28;20039;-71
2021/12/12 02:50:38;;;;;;;39.83;24.25;;;8.20;99.90;;;8.33;99.37;101693.75;5111922;28;20116;-71
2021/12/12 02:53:12;;;;;;;35.47;23.92;;;8.20;99.90;;;8.21;99.35;101675.94;5111972;28;20040;-71
2021/12/12 02:55:47;;;;;;;43.33;23.83;;;8.20;99.90;;;8.35;99.51;101684.13;5112233;28;20113;-71
2021/12/12 02:58:20;;;;;;;33.25;24.58;;;8.20;99.90;;;8.36;99.57;101692.09;5097691;28;20066;-71
2021/12/12 03:00:56;;;;;;;35.60;22.85;;;8.20;99.90;;;8.42;99.62;101688.69;5097672;28;20044;-72
2021/12/12 03:03:27;;;;;;;45.13;25.58;;;8.20;99.90;;;8.50;99.57;101697.56;5115988;28;20092;-72
2021/12/12 03:05:56;;;;;;;43.83;24.45;;;8.30;99.90;;;8.47;99.69;101687.88;5115728;28;20396;-72
2021/12/12 03:08:25;;;;;;;35.50;23.00;;;8.30;99.90;;;8.46;99.65;101695.78;5115694;28;20074;-71
2021/12/12 03:10:56;;;;;;;35.15;22.42;;;8.30;99.90;;;8.52;99.91;101694.13;5115718;28;20381;-71
2021/12/12 03:13:26;;;;;;;41.10;23.13;;;8.30;99.90;;;8.49;99.97;101688.81;5115583;28;20051;-71
2021/12/12 03:15:55;;;;;;;37.38;22.33;;;8.30;99.90;;;8.50;100.00;101685.28;5115699;28;20044;-71
2021/12/12 03:18:28;;;;;;;37.03;23.92;;;8.30;99.90;;;8.59;100.00;101685.47;5115448;28;20469;-71
2021/12/12 03:21:01;;;;;;;36.38;23.45;;;8.40;99.90;;;8.62;100.00;101689.88;5115538;28;20048;-71
2021/12/12 03:23:35;;;;;;;40.45;26.30;;;8.40;99.90;;;8.69;100.00;101674.19;5116022;28;20108;-69
2021/12/12 03:26:09;;;;;;;42.95;30.00;;;8.50;99.90;;;8.56;100.00;101650.22;5115372;28;20054;-68
2021/12/12 03:28:40;;;;;;;36.25;26.95;;;8.50;99.90;;;8.67;100.00;101672.41;5097400;28;20499;-68
2021/12/12 03:31:22;;;;;;;37.47;26.58;;;8.50;99.90;;;8.73;100.00;101662.81;5115585;28;20039;-71
2021/12/12 03:33:52;;;;;;;42.22;26.55;;;8.60;99.90;;;8.77;100.00;101671.66;5115390;28;20362;-71
2021/12/12 03:36:21;;;;;;;37.78;23.92;;;8.60;99.90;;;8.71;100.00;101661.03;5115553;28;20046;-71
2021/12/12 03:38:56;;;;;;;35.33;23.13;;;8.60;99.90;;;8.80;100.00;101669.97;5115530;28;20123;-71
2021/12/12 03:41:31;;;;;;;37.35;24.33;;;8.60;99.90;;;8.80;100.00;101674.38;5115911;28;20039;-71
2021/12/12 03:44:05;;;;;;;38.40;24.05;;;8.60;99.90;;;8.82;100.00;101678.81;5115128;28;20508;-71
2021/12/12 03:46:36;;;;;;;34.78;25.27;;;8.60;99.90;;;8.74;100.00;101675.16;5115083;28;20112;-72
2021/12/12 03:49:07;;;;;;;32.20;24.75;;;8.60;99.90;;;8.85;100.00;101680.59;5115063;28;20093;-71
2021/12/12 03:51:37;;;;;;;34.97;24.60;;;8.60;99.90;;;8.92;100.00;101683.34;5114909;28;20112;-72
2021/12/12 03:54:06;;;;;;;33.30;24.75;;;8.70;99.90;;;8.86;100.00;101666.53;5114941;28;20097;-71
2021/12/12 03:56:36;;;;;;;31.42;23.88;;;8.70;99.90;;;8.89;100.00;101688.56;5115571;28;20056;-71
2021/12/12 03:59:05;;;;;;;32.78;25.55;;;8.70;99.90;;;8.89;100.00;101690.31;5115524;28;20394;-71
2021/12/12 04:01:37;;;;;;;34.08;23.75;;;8.70;99.90;;;8.95;100.00;101690.41;5114978;28;20035;-72
2021/12/12 04:04:16;;;;;;;39.08;25.63;;;8.80;99.90;;;8.93;100.00;101695.69;5114983;28;20435;-72
2021/12/12 04:06:46;;;;;;;35.55;24.90;;;8.70;99.90;;;8.99;100.00;101702.78;5096772;28;20050;-72
2021/12/12 04:09:16;;;;;;;41.08;27.23;;;8.80;99.90;;;8.95;100.00;101712.44;5095999;28;20040;-72
2021/12/12 04:11:50;;;;;;;45.47;29.67;;;8.80;99.90;;;8.37;100.00;101622.69;5115153;28;20481;-72
2021/12/12 04:14:21;;;;;;;37.38;29.08;;;8.70;99.90;;;8.94;100.00;101709.75;5115332;28;20485;-72
2021/12/12 04:16:53;;;;;;;40.10;29.65;;;8.70;99.90;;;8.97;100.00;101700.16;5115143;28;20507;-72
2021/12/12 04:19:23;;;;;;;44.40;30.58;;;8.80;99.90;;;8.97;100.00;101707.16;5114731;28;20055;-69
2021/12/12 04:21:52;;;;;;;43.35;30.27;;;8.80;99.90;;;8.97;100.00;101715.06;5096172;28;20047;-69
2021/12/12 04:24:25;;;;;;;42.60;30.58;;;8.80;99.90;;;8.96;100.00;101693.06;5114171;28;20493;-70
2021/12/12 04:26:56;;;;;;;49.53;31.58;;;8.80;99.90;;;8.88;100.00;101683.28;5114483;28;20078;-69
2021/12/12 04:29:28;;;;;;;46.33;32.42;;;8.80;99.90;;;9.03;100.00;101694.06;5114687;28;20080;-69
2021/12/12 04:32:01;;;;;;;48.50;34.03;;;8.80;99.90;;;8.96;100.00;101693.06;5114036;28;20092;-69
2021/12/12 04:34:34;;;;;;;46.72;32.78;;;8.90;99.90;;;9.09;100.00;101705.63;5114125;28;20127;-69
2021/12/12 04:37:06;;;;;;;48.22;32.45;;;8.90;99.90;;;9.04;100.00;101696.72;5113996;28;20035;-70
2021/12/12 04:39:38;;;;;;;51.95;33.70;;;8.90;99.90;;;9.05;100.00;101697.63;5114249;28;20047;-69
2021/12/12 04:42:12;;;;;;;47.38;34.22;;;8.90;99.90;;;9.12;100.00;101693.34;5114173;28;20510;-69
2021/12/12 04:44:43;;;;;;;52.20;35.65;;;8.90;99.90;;;9.14;100.00;101700.38;5114459;28;20032;-69
2021/12/12 04:50:17;;;;;;;51.20;34.38;;;8.90;99.90;;;9.14;100.00;101696.88;5114232;28;19919;-70
2021/12/12 04:52:52;;;;;;;61.15;37.92;;;8.90;99.90;;;9.09;100.00;101700.34;5113996;28;20115;-69
2021/12/12 04:55:29;;;;;;;60.95;37.95;;;8.90;99.90;;;9.14;100.00;101692.47;5113288;28;20155;-69
2021/12/12 04:58:07;;;;;;;64.40;40.75;;;8.90;99.90;;;9.09;100.00;101705.63;5113760;28;20104;-69
2021/12/12 05:00:43;;;;;;;63.80;38.67;;;8.90;99.90;;;8.84;100.00;101644.53;5113491;28;20430;-69
2021/12/12 05:03:18;;;;;;;61.05;37.65;;;9.00;99.90;;;9.20;100.00;101708.41;5113668;28;20077;-69
2021/12/12 05:05:55;;;;;;;58.42;38.40;;;9.00;99.90;;;9.20;100.00;101736.53;5113317;28;20149;-69
2021/12/12 05:08:33;;;;;;;63.30;39.35;;;9.00;99.90;;;9.24;100.00;101707.56;5113354;28;20039;-69
2021/12/12 05:11:06;;;;;;;61.22;39.83;;;9.00;99.90;;;9.11;100.00;101692.44;5113589;28;20083;-69
2021/12/12 05:13:40;;;;;;;56.95;39.97;;;9.00;99.90;;;9.24;100.00;101714.59;5113104;28;20047;-70
2021/12/12 05:16:12;;;;;;;63.50;39.80;;;9.00;99.90;;;9.31;100.00;101719.97;5113495;28;20115;-70
2021/12/12 05:18:49;;;;;;;58.17;37.58;;;9.10;99.90;;;9.27;100.00;101712.88;5112937;28;20489;-70
2021/12/12 05:21:25;;;;;;;61.67;39.40;;;9.00;99.90;;;9.27;100.00;101715.53;5113213;28;20045;-70
2021/12/12 05:23:59;;;;;;;59.03;39.55;;;9.00;99.90;;;9.34;100.00;101720.03;5113162;28;20074;-70
2021/12/12 05:26:34;;;;;;;68.10;42.50;;;9.10;99.90;;;9.23;100.00;101716.38;5113232;28;20104;-69
2021/12/12 05:29:09;;;;;;;64.82;42.00;;;9.10;99.90;;;9.32;100.00;101734.09;5113445;28;20069;-69
2021/12/12 05:31:37;;;;;;;66.95;41.40;;;9.10;99.90;;;9.25;100.00;101717.28;5113320;28;20108;-69
2021/12/12 05:34:07;;;;;;;76.60;45.35;;;9.00;99.90;;;9.35;100.00;101728.88;5112904;28;20039;-69
2021/12/12 05:36:37;;;;;;;70.75;43.67;;;9.10;99.90;;;9.39;100.00;101714.84;5094662;28;20109;-69
2021/12/12 05:39:06;;;;;;;72.70;43.50;;;9.20;99.90;;;9.41;100.00;101727.19;5112673;28;20165;-70
2021/12/12 05:41:35;;;;;;;73.72;44.95;;;9.20;99.90;;;9.34;100.00;101732.34;5112591;28;20096;-70
2021/12/12 05:44:06;;;;;;;69.53;43.85;;;9.20;99.90;;;9.46;100.00;101721.97;5112510;28;20452;-70
2021/12/12 05:46:35;;;;;;;75.90;44.88;;;9.20;99.90;;;9.41;100.00;101708.69;5112574;28;20474;-70
2021/12/12 05:49:04;;;;;;;74.82;45.72;;;9.30;99.90;;;9.42;100.00;101717.50;5112539;28;20035;-70
2021/12/12 05:51:35;;;;;;;78.60;45.23;;;9.30;99.90;;;9.56;100.00;101731.81;5112641;28;20462;-70
2021/12/12 05:54:05;;;;;;;72.82;43.80;;;9.30;99.90;;;9.61;100.00;101736.28;5112634;28;20112;-70
2021/12/12 05:56:38;;;;;;;77.38;43.90;;;9.40;99.90;;;9.51;100.00;101747.56;5113073;28;20113;-70
2021/12/12 05:59:11;;;;;;;81.35;45.67;;;9.30;99.90;;;9.49;100.00;101733.47;5112503;28;20097;-70
2021/12/12 06:01:41;;;;;;;83.03;45.03;;;9.40;99.90;;;9.55;100.00;101751.13;5112405;28;20088;-70
2021/12/12 06:04:11;;;;;;;75.80;42.17;;;9.30;99.90;;;9.53;100.00;101744.94;5112306;28;20052;-69
2021/12/12 06:06:42;;;;;;;74.50;42.72;;;9.30;99.90;;;9.60;100.00;101754.75;5112488;28;20163;-70
2021/12/12 06:09:13;;;;;;;74.72;41.42;;;9.40;99.90;;;9.63;100.00;101747.75;5112194;28;20055;-70
2021/12/12 06:11:48;;;;;;;71.97;41.95;;;9.40;99.90;;;9.63;100.00;101752.13;5112305;28;20047;-70
2021/12/12 06:14:18;;;;;;;71.40;43.00;;;9.40;99.90;;;9.60;100.00;101763.53;5112478;28;20044;-70
2021/12/12 06:16:48;;;;;;;72.90;41.65;;;9.40;99.90;;;9.64;100.00;101759.19;5112242;28;20400;-70
2021/12/12 06:19:20;;;;;;;76.05;41.97;;;9.50;99.90;;;9.66;100.00;101760.97;5112470;28;20156;-70
2021/12/12 06:21:52;;;;;;;72.80;40.97;;;9.50;99.90;;;9.67;100.00;101764.50;5112442;28;20062;-70
2021/12/12 06:24:21;;;;;;;71.20;42.15;;;9.50;99.90;;;9.67;100.00;101773.34;5112430;28;20117;-70
2021/12/12 06:26:50;;;;;;;68.78;39.78;;;9.40;99.90;;;9.70;100.00;101761.91;5094088;28;20131;-70
2021/12/12 06:29:21;;;;;;;74.10;41.90;;;9.50;99.90;;;9.80;100.00;101769.97;5112192;28;20044;-70
2021/12/12 06:31:53;;;;;;;80.95;43.97;;;9.50;99.90;;;9.81;100.00;101753.25;5114559;28;20496;-71
2021/12/12 06:34:21;;;;;;;87.43;43.85;;;9.60;99.90;;;9.76;100.00;101749.66;5116633;28;20044;-70
2021/12/12 06:36:52;;;;;;;79.47;44.03;;;9.50;99.90;;;9.86;100.00;101755.97;5116421;28;20464;-70
2021/12/12 06:39:21;;;;;;;85.50;42.75;;;9.60;99.90;;;9.71;100.00;101730.25;5116535;28;20040;-70
2021/12/12 06:41:51;;;;;;;83.57;41.70;;;9.60;99.90;;;9.85;100.00;101756.84;5098208;28;20500;-70
2021/12/12 06:44:22;;;;;;;80.10;43.57;;;9.60;99.90;;;9.92;100.00;101759.56;5097893;28;20047;-70
2021/12/12 06:46:53;;;;;;;73.50;42.05;;;9.70;99.90;;;9.87;100.00;101748.03;5116168;28;20281;-71
2021/12/12 06:49:24;;;;;;;85.20;43.53;;;9.70;99.90;;;9.90;100.00;101763.06;5098108;28;20104;-70
2021/12/12 06:51:57;;;;;;;83.38;43.67;;;9.70;99.90;;;9.92;100.00;101759.56;5116227;28;20044;-70
2021/12/12 06:54:28;;;;;;;81.05;42.72;;;9.70;99.90;;;9.94;100.00;101757.84;5098006;28;20088;-70
2021/12/12 06:57:05;;;;;;;85.50;44.03;;;9.70;99.90;;;9.99;100.00;101757.88;5116178;28;20039;-70
2021/12/12 06:59:41;;;;;;;86.43;42.30;;;9.70;99.90;;;9.96;100.00;101764.03;5116490;28;20043;-71
2021/12/12 07:02:11;;;;;;;93.80;44.33;;;9.70;99.90;;;9.91;100.00;101760.44;5116007;28;20511;-70
2021/12/12 07:04:42;;;;;;;85.40;43.72;;;9.70;99.90;;;9.98;100.00;101767.59;5115992;28;20117;-70
2021/12/12 07:07:14;;;;;;;87.05;45.10;;;9.70;99.90;;;9.97;100.00;101765.78;5116153;28;20047;-70
2021/12/12 07:09:46;;;;;;;94.72;44.03;;;9.80;99.90;;;9.83;100.00;101746.22;5116124;28;20444;-70
2021/12/12 07:12:22;;;;;;;85.85;44.92;;;9.80;99.90;;;10.05;100.00;101776.44;5115745;28;20047;-70
2021/12/12 07:14:53;;;;;;;95.72;43.30;;;9.80;99.90;;;10.12;100.00;101781.00;5115681;28;20039;-70
2021/12/12 07:17:23;;;;;;;96.93;44.90;;;9.90;99.90;;;10.18;100.00;101793.41;5115674;28;20036;-70
2021/12/12 07:19:52;;;;;;;96.72;45.47;;;9.90;99.90;;;10.09;100.00;101785.31;5115801;28;20051;-70
2021/12/12 07:22:21;;;;;;;99.57;44.42;;;9.90;99.90;;;10.16;100.00;101796.03;5115976;28;20112;-70
2021/12/12 07:24:50;;;;;;;94.88;45.30;;;9.90;99.90;;;10.17;100.00;101794.25;5116072;28;20447;-70
2021/12/12 07:27:18;;;;;;;82.10;42.90;;;9.90;99.90;;;10.14;100.00;101783.66;5115373;28;20075;-70
2021/12/12 07:29:47;;;;;;;93.20;44.15;;;9.90;99.90;;;10.29;100.00;101794.41;5115386;28;20040;-70
2021/12/12 07:32:17;;;;;;;83.47;42.35;;;10.00;99.90;;;10.33;100.00;101801.50;5115296;28;20070;-70
2021/12/12 07:34:46;;;;;;;88.35;42.17;;;10.10;99.90;;;10.29;100.00;101797.94;5115466;28;20044;-70
2021/12/12 07:37:16;;;;;;;79.57;41.50;;;10.10;99.90;;;10.23;100.00;101781.09;5115417;28;20074;-70
2021/12/12 07:39:46;;;;;;;80.78;40.22;;;10.10;99.90;;;10.35;100.00;101800.66;5115591;28;20039;-70
2021/12/12 07:42:17;;;;;;;84.53;41.58;;;10.10;99.90;;;10.24;100.00;101780.25;5115183;28;20489;-70
2021/12/12 07:44:47;;;;;;;97.53;40.53;;;10.10;99.90;;;10.31;100.00;101801.50;5115275;28;20055;-70
2021/12/12 07:47:18;;;;;;;89.45;41.75;;;10.10;99.90;;;10.25;100.00;101793.50;5115786;28;20431;-70
2021/12/12 07:49:50;;;;;;;78.00;40.38;;;10.10;99.90;;;10.34;100.00;101803.25;5115154;28;20044;-70
2021/12/12 07:52:23;;;;;;;88.68;43.08;;;10.10;99.90;;;10.29;100.00;101804.97;5115081;28;20395;-70
2021/12/12 07:54:52;;;;;;;91.63;41.33;;;10.10;99.90;;;10.28;100.00;101806.72;5114677;28;20066;-70
2021/12/12 07:57:23;;;;;;;81.53;41.65;;;10.10;99.90;;;10.31;100.00;101817.38;5115140;28;20039;-70
2021/12/12 07:59:53;;;;;;;92.18;41.42;;;10.00;99.90;;;10.32;100.00;101810.28;5115160;28;20056;-71
2021/12/12 08:02:25;;;;;;;97.57;42.00;;;10.10;99.90;;;10.37;100.00;101819.19;5115265;28;20035;-70
2021/12/12 08:04:56;;;;;;;86.68;42.10;;;10.10;99.90;;;10.35;100.00;101826.22;5114890;28;20065;-70
2021/12/12 08:07:27;;;;;;;82.82;41.25;;;10.10;99.90;;;10.34;100.00;101824.41;5114625;28;20508;-70
2021/12/12 08:09:56;;;;;;;91.97;41.72;;;10.10;99.90;;;10.35;100.00;101832.41;5114649;28;20524;-70
2021/12/12 08:12:29;;;;;;;91.95;41.10;;;10.10;99.90;;;10.36;100.00;101834.16;5096329;28;20084;-70
2021/12/12 08:14:59;;;;;;;95.57;41.33;;;10.10;99.90;;;10.42;100.00;101843.91;5114592;28;20047;-70
2021/12/12 08:17:29;;;;;;;89.35;41.55;;;10.10;99.90;;;10.41;100.00;101843.06;5114731;28;20118;-70
2021/12/12 08:19:59;;;;;;;73.38;41.10;;;10.20;99.90;;;10.38;100.00;101845.66;5114717;28;20066;-73
2021/12/12 08:22:29;;;;;;;84.25;38.97;;;10.10;99.90;;;10.34;100.00;101843.84;5096232;28;20454;-73
2021/12/12 08:24:59;;;;;;;67.45;37.47;;;10.20;99.90;;;10.39;100.00;101855.38;5114879;28;20043;-73
2021/12/12 08:27:28;;;;;;;85.13;40.13;;;10.10;99.90;;;10.46;100.00;101851.03;5095717;28;20078;-72
2021/12/12 08:29:59;;;;;;;70.55;37.30;;;10.20;99.90;;;10.47;100.00;101863.41;5096051;28;20541;-77
2021/12/12 08:32:30;;;;;;;68.35;39.53;;;10.20;99.90;;;10.53;100.00;101864.34;5096009;28;20473;-77
2021/12/12 08:35:11;;;;;;;71.97;37.78;;;10.30;99.90;;;10.58;100.00;101861.75;5114364;28;20499;-74
2021/12/12 08:37:41;;;;;;;68.85;37.25;;;10.30;99.90;;;10.58;100.00;101857.34;5114046;28;20032;-74
2021/12/12 08:40:14;;;;;;;67.07;35.38;;;10.40;99.90;;;10.60;100.00;101873.25;5114108;28;20043;-74
2021/12/12 08:42:42;;;;;;;56.60;34.72;;;10.40;99.90;;;10.61;100.00;101877.66;5113901;28;20567;-74
2021/12/12 08:45:14;;;;;;;51.65;31.38;;;10.40;99.90;;;10.72;100.00;101879.53;5096024;28;20560;-75
2021/12/12 08:47:45;;;;;;;52.00;32.28;;;10.50;99.90;;;10.72;100.00;101866.31;5114189;28;20123;-72
2021/12/12 08:50:16;;;;;;;;;;;10.50;99.90;;;10.81;100.00;101879.66;5114874;28;20071;-71
2021/12/12 08:52:47;;;;;;;43.88;28.90;;;10.60;99.90;;;10.81;100.00;101886.72;5096117;28;19920;-69
2021/12/12 08:55:19;;;;;;;;;;;10.50;99.90;;;10.74;100.00;101884.88;5114092;28;20067;-73
2021/12/12 08:57:59;;;;;;;43.67;28.20;;;10.50;99.90;;;10.87;100.00;101886.78;5113697;28;20373;-71
2021/12/12 09:00:36;;;;;;;38.33;26.05;;;10.60;99.90;;;10.88;100.00;101888.53;5095626;28;20043;-70
2021/12/12 09:03:09;;;;;;;39.30;25.92;;;10.60;99.90;;;10.78;100.00;101884.03;5113594;28;20044;-71
2021/12/12 09:05:42;;;;;;;36.20;24.25;;;10.60;99.90;;;10.85;100.00;101894.72;5113611;28;20044;-70
2021/12/12 09:08:23;;;;;;;38.72;26.13;;;10.60;99.90;;;10.89;100.00;101895.63;5113548;28;20376;-72
2021/12/12 09:11:00;;;;;;;37.60;25.90;;;10.60;99.90;;;10.86;100.00;101896.47;5113819;28;20096;-72
2021/12/12 09:13:35;;;;;;;40.55;26.58;;;10.70;99.90;;;10.82;100.00;101896.41;5113511;28;20391;-68
2021/12/12 09:16:09;;;;;;;34.92;26.13;;;10.60;99.90;;;10.87;100.00;101894.72;5113481;28;20039;-73
2021/12/12 09:18:45;;;;;;;40.58;27.10;;;10.60;99.90;;;10.87;100.00;101906.19;5113371;28;20047;-70
2021/12/12 09:21:25;;;;;;;41.38;25.48;;;10.60;99.90;;;10.91;100.00;101909.75;5113331;28;20035;-68
2021/12/12 09:24:05;;;;;;;36.78;25.50;;;10.60;99.90;;;10.97;100.00;101920.41;5113531;28;20039;-71
2021/12/12 09:26:39;;;;;;;34.03;24.95;;;10.70;99.90;;;10.98;100.00;101911.59;5113623;28;20063;-68
2021/12/12 09:29:18;;;;;;;34.28;25.38;;;10.70;99.90;;;10.95;100.00;101914.22;5113257;28;20093;-68
2021/12/12 09:31:57;;;;;;;35.00;25.58;;;10.70;99.90;;;10.98;100.00;101924.81;5113222;28;20062;-71
2021/12/12 09:34:35;;;;;;;33.35;25.83;;;10.70;99.90;;;11.05;100.00;101928.44;5113125;28;20459;-68
2021/12/12 09:37:19;;;;;;;35.83;25.45;;;10.80;99.90;;;11.05;100.00;101928.44;5113611;28;20039;-70
2021/12/12 09:39:58;;;;;;;34.88;25.30;;;10.80;99.90;;;11.14;100.00;101931.19;5113641;28;20377;-70
2021/12/12 09:42:50;;;;;;;32.30;24.92;;;10.80;99.90;;;11.16;100.00;101943.56;5113421;28;20043;-74
2021/12/12 09:45:55;;;;;;;30.77;24.10;;;10.90;99.90;;;11.22;100.00;101935.69;5095389;28;20047;-68
2021/12/12 09:52:43;;;;;;;29.63;22.27;;;11.00;99.90;;;11.12;100.00;101936.47;5082904;28;20051;-68
2021/12/12 09:55:16;;;;;;;30.63;23.27;;;10.90;99.90;;;11.17;100.00;101942.69;5114462;28;20051;-69
2021/12/12 09:57:53;;;;;;;28.08;23.15;;;10.90;99.90;;;11.24;100.00;101930.41;5112989;28;20326;-70
2021/12/12 10:00:30;;;;;;;30.33;22.52;;;11.00;99.90;;;11.28;100.00;101927.81;5113443;28;20036;-70
2021/12/12 10:03:17;;;;;;;32.72;23.20;;;11.00;99.90;;;11.32;100.00;101934.03;5113336;28;20052;-71
2021/12/12 10:06:03;;;;;;;31.52;23.30;;;11.10;99.90;;;11.27;100.00;101928.66;5113526;28;20047;-72
2021/12/12 10:08:49;;;;;;;28.85;22.90;;;11.10;99.90;;;11.30;100.00;101931.38;5113395;28;20051;-71
2021/12/12 10:11:28;;;;;;;34.78;24.45;;;11.10;99.90;;;11.36;100.00;101927.88;5112736;28;20388;-71
2021/12/12 10:14:06;;;;;;;28.70;22.67;;;11.10;99.90;;;11.25;100.00;101913.63;5113086;28;20036;-74
2021/12/12 10:16:40;;;;;;;33.83;24.42;;;11.10;99.90;;;11.32;100.00;101931.38;5113017;28;20040;-75
2021/12/12 10:19:23;;;;;;;27.63;22.73;;;11.10;99.90;;;11.39;100.00;101938.50;5113016;28;20051;-70
2021/12/12 10:22:07;;;;;;;32.50;23.55;;;11.10;99.90;;;11.37;100.00;101927.00;5112609;28;20503;-71
2021/12/12 10:24:43;;;;;;;31.40;22.73;;;11.10;99.90;;;11.42;100.00;101935.88;5094473;28;20055;-72
2021/12/12 10:27:20;;;;;;;26.63;23.00;;;11.20;99.90;;;11.45;100.00;101938.56;5113004;28;20043;-69
2021/12/12 10:30:04;;;;;;;29.65;22.23;;;11.20;99.90;;;11.42;100.00;101939.41;5094302;28;20047;-69
2021/12/12 10:32:36;;;;;;;29.35;22.08;;;11.20;99.90;;;11.47;100.00;101950.94;5112175;28;20093;-68
2021/12/12 10:35:12;;;;;;;27.05;20.95;;;11.20;99.90;;;11.08;100.00;101860.50;5093855;28;20093;-67
2021/12/12 10:37:53;;;;;;;27.45;21.08;;;11.20;99.90;;;11.60;100.00;101934.28;5112184;28;20377;-68
2021/12/12 10:40:29;;;;;;;23.48;18.33;;;11.30;99.90;;;11.51;100.00;101926.25;5112155;28;20040;-69
2021/12/12 10:43:05;;;;;;;21.83;18.23;;;11.40;99.90;;;11.71;100.00;101945.88;5112139;28;20054;-68
2021/12/12 10:45:38;;;;;;;20.52;17.40;;;11.50;99.90;;;11.79;100.00;101944.19;5112664;28;20040;-67